Time;durP1;ratioP1;P1;durP2;ratioP2;P2;SDS_P1;SDS_P2;PMS_P1;PMS_P2;Temp;Humidity;BMP_temperature;BMP_pressure;BME280_temperature;BME280_humidity;BME280_pressure;Samples;Min_cycle;Max_cycle;Signal;HPM_P1;HPM_P2
2023/07/22 00:02:17;;;;;;;4.78;3.40;;;19.70;99.90;;;;;;5051195;28;20029;-59
2023/07/22 00:04:42;;;;;;;4.75;3.40;;;19.90;99.90;;;;;;5050963;28;20029;-60
2023/07/22 00:07:08;;;;;;;4.80;3.53;;;20.00;99.90;;;;;;5051082;28;20032;-59
2023/07/22 00:09:34;;;;;;;5.05;3.70;;;20.00;99.90;;;;;;5050918;28;20468;-59
2023/07/22 00:12:00;;;;;;;6.63;3.70;;;19.80;99.90;;;;;;5051408;28;20104;-59
2023/07/22 00:14:26;;;;;;;5.53;3.53;;;19.70;99.90;;;;;;5050807;28;20032;-59
2023/07/22 00:16:52;;;;;;;6.45;3.88;;;19.70;99.90;;;;;;5050586;28;20100;-59
2023/07/22 00:19:17;;;;;;;5.00;3.40;;;19.70;99.90;;;;;;5051210;28;20033;-60
2023/07/22 00:21:44;;;;;;;6.00;3.60;;;19.70;99.90;;;;;;5050618;28;20056;-59
2023/07/22 00:24:10;;;;;;;5.72;3.55;;;19.50;99.90;;;;;;5051085;28;20052;-58
2023/07/22 00:26:36;;;;;;;4.88;3.90;;;19.20;99.90;;;;;;5050884;28;20359;-59
2023/07/22 00:29:02;;;;;;;7.05;3.90;;;19.00;99.90;;;;;;5050679;28;20029;-59
2023/07/22 00:31:28;;;;;;;5.38;3.97;;;18.90;99.90;;;;;;5050487;28;20516;-59
2023/07/22 00:33:53;;;;;;;4.13;3.70;;;18.70;99.90;;;;;;5050889;28;20108;-60
2023/07/22 00:36:19;;;;;;;6.35;4.22;;;18.70;99.90;;;;;;5050792;28;20096;-59
2023/07/22 00:38:45;;;;;;;5.28;4.03;;;18.50;99.90;;;;;;5050779;28;20053;-59
2023/07/22 00:41:11;;;;;;;5.00;3.92;;;18.30;99.90;;;;;;5051158;28;20025;-59
2023/07/22 00:43:38;;;;;;;4.78;4.13;;;18.30;99.90;;;;;;5050551;28;20029;-60
2023/07/22 00:46:04;;;;;;;7.53;4.40;;;18.20;99.90;;;;;;5050310;28;20071;-60
2023/07/22 00:48:30;;;;;;;4.78;4.22;;;18.00;99.90;;;;;;5050542;28;20037;-59
2023/07/22 00:50:56;;;;;;;5.05;4.38;;;17.90;99.90;;;;;;5050678;28;20044;-60
2023/07/22 00:53:22;;;;;;;5.32;4.40;;;17.80;99.90;;;;;;5052922;28;20670;-60
2023/07/22 00:55:47;;;;;;;5.82;4.47;;;17.70;99.90;;;;;;5054876;28;20028;-59
2023/07/22 00:58:15;;;;;;;5.20;4.70;;;17.70;99.90;;;;;;5054276;28;20032;-59
2023/07/22 01:00:40;;;;;;;5.07;4.57;;;17.70;99.90;;;;;;5054058;28;20029;-59
2023/07/22 01:03:07;;;;;;;5.93;4.85;;;17.50;99.90;;;;;;5053062;28;20028;-59
2023/07/22 01:05:35;;;;;;;5.88;4.63;;;17.50;99.90;;;;;;5054466;28;20078;-59
2023/07/22 01:08:01;;;;;;;6.50;4.90;;;17.60;99.90;;;;;;5053675;28;20032;-59
2023/07/22 01:10:28;;;;;;;5.90;4.63;;;17.80;99.90;;;;;;5054197;28;20033;-60
2023/07/22 01:12:56;;;;;;;4.95;4.30;;;17.90;99.90;;;;;;5053761;28;20068;-59
2023/07/22 01:15:23;;;;;;;5.85;4.80;;;18.00;99.90;;;;;;5054052;28;20148;-59
2023/07/22 01:17:50;;;;;;;5.55;4.50;;;18.00;99.90;;;;;;5053557;28;20505;-60
2023/07/22 01:20:16;;;;;;;5.93;4.60;;;18.00;99.90;;;;;;5053938;28;20493;-59
2023/07/22 01:22:49;;;;;;;5.50;4.82;;;18.10;99.90;;;;;;5054222;28;20025;-59
2023/07/22 01:25:15;;;;;;;7.07;4.65;;;18.10;99.90;;;;;;5053713;28;20154;-59
2023/07/22 01:27:41;;;;;;;5.00;4.38;;;18.00;99.90;;;;;;5053647;28;20033;-59
2023/07/22 01:30:09;;;;;;;5.93;4.78;;;18.10;99.90;;;;;;5053312;28;20031;-59
2023/07/22 01:32:35;;;;;;;6.68;4.35;;;17.90;99.90;;;;;;5053754;28;20039;-59
2023/07/22 01:35:00;;;;;;;5.50;4.93;;;17.90;99.90;;;;;;5053662;28;20478;-59
2023/07/22 01:37:26;;;;;;;5.40;4.57;;;17.70;99.90;;;;;;5053483;28;20047;-60
2023/07/22 01:39:52;;;;;;;5.75;5.20;;;17.40;99.90;;;;;;5053693;28;20037;-59
2023/07/22 01:42:18;;;;;;;6.97;4.95;;;17.30;99.90;;;;;;5053372;28;20029;-60
2023/07/22 01:44:44;;;;;;;7.30;5.22;;;17.20;99.90;;;;;;5053045;28;20037;-60
2023/07/22 01:47:10;;;;;;;5.97;5.00;;;17.10;99.90;;;;;;5053757;28;20116;-60
2023/07/22 01:49:35;;;;;;;5.55;5.00;;;17.00;99.90;;;;;;5053418;28;20036;-60
2023/07/22 01:52:01;;;;;;;5.80;5.30;;;17.00;99.90;;;;;;5053407;28;20430;-59
2023/07/22 01:54:27;;;;;;;6.10;5.30;;;16.90;99.90;;;;;;5053333;28;20398;-60
2023/07/22 01:56:52;;;;;;;6.22;5.50;;;16.90;99.90;;;;;;5053076;28;20031;-59
2023/07/22 01:59:18;;;;;;;5.72;5.22;;;16.80;99.90;;;;;;5053260;28;20021;-60
2023/07/22 02:01:44;;;;;;;5.57;5.10;;;16.70;99.90;;;;;;5053293;28;20033;-60
2023/07/22 02:04:10;;;;;;;6.72;5.25;;;16.70;99.90;;;;;;5052113;28;20032;-59
2023/07/22 02:06:36;;;;;;;6.63;5.28;;;16.60;99.90;;;;;;5053016;28;20090;-59
2023/07/22 02:09:08;;;;;;;7.40;5.30;;;16.60;99.90;;;;;;5052855;28;20485;-59
2023/07/22 02:11:35;;;;;;;5.90;5.28;;;16.60;99.90;;;;;;5053227;28;20027;-58
2023/07/22 02:14:01;;;;;;;5.93;5.28;;;16.50;99.90;;;;;;5052470;28;20037;-59
2023/07/22 02:16:26;;;;;;;6.70;5.50;;;16.60;99.90;;;;;;5052899;28;20047;-60
2023/07/22 02:18:52;;;;;;;5.53;5.03;;;16.50;99.90;;;;;;5052652;28;20099;-59
2023/07/22 02:21:18;;;;;;;5.47;5.00;;;16.60;99.90;;;;;;5051487;28;20104;-60
2023/07/22 02:23:43;;;;;;;6.15;5.40;;;16.80;99.90;;;;;;5052655;28;20406;-59
2023/07/22 02:26:09;;;;;;;5.63;5.10;;;16.90;99.90;;;;;;5052522;28;20530;-59
2023/07/22 02:28:35;;;;;;;7.18;5.57;;;17.10;99.90;;;;;;5052202;28;20120;-59
2023/07/22 02:31:04;;;;;;;7.93;5.32;;;17.10;99.90;;;;;;5051740;28;20033;-59
2023/07/22 02:33:30;;;;;;;5.45;4.95;;;17.20;99.90;;;;;;5052556;28;20025;-59
2023/07/22 02:35:55;;;;;;;6.00;5.40;;;17.30;99.90;;;;;;5052532;28;20052;-59
2023/07/22 02:38:21;;;;;;;5.72;5.10;;;17.20;99.90;;;;;;5052390;28;20021;-59
2023/07/22 02:40:47;;;;;;;5.80;5.20;;;17.30;99.90;;;;;;5052198;28;20033;-59
2023/07/22 02:43:12;;;;;;;7.63;5.35;;;17.30;99.90;;;;;;5052011;28;20029;-59
2023/07/22 02:45:38;;;;;;;5.88;5.28;;;17.40;99.90;;;;;;5051410;28;20057;-59
2023/07/22 02:48:04;;;;;;;5.68;5.18;;;17.40;99.90;;;;;;5052190;28;20036;-59
2023/07/22 02:50:30;;;;;;;6.38;5.68;;;17.30;99.90;;;;;;5052387;28;20565;-60
2023/07/22 02:52:56;;;;;;;6.65;5.85;;;17.00;99.90;;;;;;5051196;28;20486;-59
2023/07/22 02:55:23;;;;;;;6.68;5.55;;;17.00;99.90;;;;;;5052055;28;20017;-59
2023/07/22 02:57:48;;;;;;;6.93;6.25;;;16.70;99.90;;;;;;5051867;28;20071;-60
2023/07/22 03:00:25;;;;;;;6.03;5.53;;;16.60;99.90;;;;;;5051867;28;20033;-59
2023/07/22 03:03:01;;;;;;;6.30;5.70;;;16.60;99.90;;;;;;5052085;28;20443;-60
2023/07/22 03:05:28;;;;;;;6.10;5.60;;;16.60;99.90;;;;;;5051873;28;20025;-60
2023/07/22 03:07:54;;;;;;;6.30;5.70;;;16.60;99.90;;;;;;5051731;28;20079;-60
2023/07/22 03:10:20;;;;;;;5.78;5.18;;;16.60;99.90;;;;;;5051942;28;20371;-59
2023/07/22 03:12:45;;;;;;;7.05;6.03;;;16.60;99.90;;;;;;5051916;28;20486;-60
2023/07/22 03:15:12;;;;;;;6.65;5.32;;;16.50;99.90;;;;;;5051776;28;20486;-59
2023/07/22 03:17:39;;;;;;;6.38;5.88;;;16.50;99.90;;;;;;5051480;28;20024;-59
2023/07/22 03:20:14;;;;;;;7.43;5.90;;;16.50;99.90;;;;;;5052111;28;20482;-59
2023/07/22 03:22:42;;;;;;;6.68;5.97;;;16.40;99.90;;;;;;5051645;28;20032;-59
2023/07/22 03:25:10;;;;;;;8.38;5.93;;;16.40;99.90;;;;;;5051342;28;20045;-59
2023/07/22 03:27:36;;;;;;;6.97;5.85;;;16.40;99.90;;;;;;5051359;28;20036;-59
2023/07/22 03:30:03;;;;;;;6.95;6.07;;;16.30;99.90;;;;;;5051465;28;20028;-59
2023/07/22 03:32:29;;;;;;;6.88;5.80;;;16.30;99.90;;;;;;5051834;28;20063;-60
2023/07/22 03:34:55;;;;;;;6.50;5.65;;;16.30;99.90;;;;;;5051494;28;20028;-60
2023/07/22 03:37:20;;;;;;;5.72;5.22;;;16.40;99.90;;;;;;5051120;28;20091;-59
2023/07/22 03:39:46;;;;;;;6.28;5.38;;;16.70;99.90;;;;;;5051479;28;20013;-59
2023/07/22 03:42:12;;;;;;;5.97;5.43;;;16.80;99.90;;;;;;5051261;28;20029;-59
2023/07/22 03:44:37;;;;;;;6.25;5.68;;;16.90;99.90;;;;;;5051298;28;20393;-59
2023/07/22 03:47:03;;;;;;;5.10;4.70;;;16.90;99.90;;;;;;5051581;28;20029;-59
2023/07/22 03:49:29;;;;;;;5.65;5.15;;;17.00;99.90;;;;;;5051240;28;20024;-59
2023/07/22 03:51:54;;;;;;;5.93;5.43;;;17.00;99.90;;;;;;5051304;28;20466;-59
2023/07/22 03:54:20;;;;;;;7.18;5.38;;;17.00;99.90;;;;;;5050895;28;20025;-59
2023/07/22 03:56:46;;;;;;;7.00;5.45;;;17.00;99.90;;;;;;5051181;28;20036;-59
2023/07/22 03:59:11;;;;;;;6.68;5.28;;;17.00;99.90;;;;;;5051544;28;20256;-59
2023/07/22 04:01:37;;;;;;;6.97;5.43;;;17.00;99.90;;;;;;5051352;28;20025;-59
2023/07/22 04:04:03;;;;;;;6.63;5.85;;;17.00;99.90;;;;;;5051065;28;20036;-60
2023/07/22 04:06:29;;;;;;;6.57;5.63;;;16.80;99.90;;;;;;5051214;28;20410;-59
2023/07/22 04:08:54;;;;;;;7.82;6.20;;;16.60;99.90;;;;;;5050637;28;20466;-59
2023/07/22 04:11:20;;;;;;;6.65;5.90;;;16.40;99.90;;;;;;5051465;28;20497;-60
2023/07/22 04:13:45;;;;;;;6.38;5.82;;;16.30;99.90;;;;;;5051070;28;20067;-59
2023/07/22 04:16:11;;;;;;;6.30;5.80;;;16.30;99.90;;;;;;5050984;28;20029;-60
2023/07/22 04:18:37;;;;;;;6.45;5.70;;;16.30;99.90;;;;;;5050884;28;20021;-59
2023/07/22 04:21:02;;;;;;;6.55;5.85;;;16.30;99.90;;;;;;5050927;28;20029;-60
2023/07/22 04:23:28;;;;;;;6.80;6.10;;;16.20;99.90;;;;;;5050888;28;20059;-59
2023/07/22 04:25:54;;;;;;;7.53;6.03;;;16.20;99.90;;;;;;5050925;28;20106;-60
2023/07/22 04:28:19;;;;;;;6.32;5.78;;;16.10;99.90;;;;;;5053249;28;20497;-59
2023/07/22 04:30:55;;;;;;;6.38;5.78;;;16.10;99.90;;;;;;5054800;28;20040;-60
2023/07/22 04:33:21;;;;;;;6.55;5.95;;;16.00;99.90;;;;;;5054862;28;20013;-60
2023/07/22 04:35:46;;;;;;;6.63;6.03;;;16.00;99.90;;;;;;5054700;28;20033;-59
2023/07/22 04:38:12;;;;;;;6.32;5.80;;;16.00;99.90;;;;;;5054264;28;20025;-59
2023/07/22 04:40:43;;;;;;;6.32;5.72;;;16.00;99.90;;;;;;5054913;28;20025;-59
2023/07/22 04:43:09;;;;;;;7.28;5.63;;;16.10;99.90;;;;;;5054759;28;20238;-59
2023/07/22 04:45:34;;;;;;;6.80;6.13;;;16.00;99.90;;;;;;5054594;28;20457;-59
2023/07/22 04:48:01;;;;;;;6.78;6.18;;;15.90;99.90;;;;;;5054533;28;20037;-60
2023/07/22 04:50:27;;;;;;;7.45;5.78;;;15.90;99.90;;;;;;5054715;28;20029;-59
2023/07/22 04:52:55;;;;;;;6.38;5.78;;;15.80;99.90;;;;;;5053955;28;20033;-59
2023/07/22 04:55:21;;;;;;;7.55;6.45;;;16.20;99.90;;;;;;5054379;28;20087;-58
2023/07/22 04:57:47;;;;;;;6.35;5.53;;;16.30;99.90;;;;;;5054808;28;20032;-59
2023/07/22 05:00:15;;;;;;;7.70;5.63;;;16.50;99.90;;;;;;5054280;28;20063;-59
2023/07/22 05:02:45;;;;;;;6.45;5.85;;;16.60;99.90;;;;;;5054313;28;20049;-59
2023/07/22 05:05:12;;;;;;;5.90;5.40;;;16.60;99.90;;;;;;5054612;28;20031;-59
2023/07/22 05:07:38;;;;;;;8.48;5.85;;;16.80;99.90;;;;;;5053611;28;20033;-59
2023/07/22 05:10:04;;;;;;;6.15;5.53;;;16.80;99.90;;;;;;5053972;28;20033;-59
2023/07/22 05:12:30;;;;;;;6.25;5.25;;;16.80;99.90;;;;;;5054316;28;20502;-59
2023/07/22 05:14:55;;;;;;;5.93;5.38;;;16.80;99.90;;;;;;5054256;28;20051;-59
2023/07/22 05:17:21;;;;;;;6.32;5.70;;;16.90;99.90;;;;;;5054068;28;20021;-59
2023/07/22 05:19:48;;;;;;;7.32;6.03;;;17.00;99.90;;;;;;5053795;28;20057;-59
2023/07/22 05:22:14;;;;;;;6.82;5.82;;;16.80;99.90;;;;;;5053484;28;20047;-59
2023/07/22 05:24:40;;;;;;;6.97;5.68;;;16.70;99.90;;;;;;5052457;28;20056;-59
2023/07/22 05:27:06;;;;;;;7.47;5.53;;;16.70;99.90;;;;;;5054129;28;20037;-59
2023/07/22 05:29:32;;;;;;;7.40;5.88;;;16.60;99.90;;;;;;5053786;28;20490;-60
2023/07/22 05:31:57;;;;;;;6.20;5.60;;;16.60;99.90;;;;;;5053673;28;20464;-60
2023/07/22 05:34:23;;;;;;;7.05;5.45;;;16.60;99.90;;;;;;5053307;28;20044;-59
2023/07/22 05:36:48;;;;;;;6.00;5.40;;;16.50;99.90;;;;;;5053559;28;20116;-59
2023/07/22 05:39:17;;;;;;;6.15;5.55;;;16.50;99.90;;;;;;5052316;28;20017;-60
2023/07/22 05:41:43;;;;;;;6.40;5.72;;;16.60;99.90;;;;;;5053642;28;20490;-60
2023/07/22 05:44:08;;;;;;;6.43;5.55;;;16.60;99.90;;;;;;5053563;28;20021;-60
2023/07/22 05:46:34;;;;;;;6.53;5.75;;;16.60;99.90;;;;;;5053492;28;20025;-60
2023/07/22 05:49:00;;;;;;;7.72;6.20;;;16.70;99.90;;;;;;5053400;28;20043;-60
2023/07/22 05:51:26;;;;;;;8.05;6.28;;;16.70;99.90;;;;;;5052896;28;20108;-60
2023/07/22 05:53:52;;;;;;;7.60;6.25;;;16.80;99.90;;;;;;5053744;28;20025;-60
2023/07/22 05:56:17;;;;;;;8.35;6.43;;;16.80;99.90;;;;;;5053186;28;20025;-59
2023/07/22 05:58:43;;;;;;;7.47;6.07;;;16.90;99.90;;;;;;5053159;28;20029;-59
2023/07/22 06:01:10;;;;;;;7.47;5.95;;;17.00;99.90;;;;;;5053648;28;20401;-60
2023/07/22 06:03:36;;;;;;;7.07;6.03;;;17.10;99.90;;;;;;5053073;28;20063;-60
2023/07/22 06:06:01;;;;;;;7.43;6.00;;;17.10;99.90;;;;;;5052904;28;20049;-59
2023/07/22 06:08:27;;;;;;;6.47;5.53;;;17.30;99.90;;;;;;5052927;28;20119;-59
2023/07/22 06:10:53;;;;;;;7.03;5.05;;;17.60;99.90;;;;;;5053047;28;20067;-60
2023/07/22 06:13:18;;;;;;;5.93;5.30;;;17.80;99.90;;;;;;5052913;28;20024;-59
2023/07/22 06:15:44;;;;;;;8.25;5.63;;;18.00;99.90;;;;;;5053547;28;20032;-59
2023/07/22 06:18:09;;;;;;;5.28;4.78;;;18.10;99.90;;;;;;5051270;28;20029;-59
2023/07/22 06:20:36;;;;;;;5.45;4.95;;;18.20;99.90;;;;;;5052396;28;20033;-60
2023/07/22 06:23:02;;;;;;;7.57;5.38;;;18.30;99.90;;;;;;5052744;28;20486;-59
2023/07/22 06:25:28;;;;;;;4.95;4.32;;;18.50;99.90;;;;;;5053096;28;20069;-60
2023/07/22 06:27:54;;;;;;;5.78;4.53;;;18.60;99.90;;;;;;5052647;28;20130;-60
2023/07/22 06:30:19;;;;;;;6.97;4.80;;;18.60;99.90;;;;;;5052759;28;20025;-59
2023/07/22 06:32:45;;;;;;;6.40;4.70;;;18.70;99.90;;;;;;5052632;28;20036;-60
2023/07/22 06:35:11;;;;;;;5.93;4.53;;;18.70;99.90;;;;;;5052280;28;20402;-59
2023/07/22 06:37:37;;;;;;;7.03;4.55;;;18.70;99.90;;;;;;5052446;28;20032;-60
2023/07/22 06:40:03;;;;;;;7.72;4.90;;;18.60;99.90;;;;;;5052764;28;20029;-58
2023/07/22 06:42:29;;;;;;;6.55;4.88;;;18.50;99.90;;;;;;5052493;28;20398;-60
2023/07/22 06:44:55;;;;;;;6.78;5.03;;;18.50;99.90;;;;;;5051339;28;20033;-60
2023/07/22 06:47:21;;;;;;;7.15;4.80;;;18.40;99.90;;;;;;5052163;28;20494;-60
2023/07/22 06:49:47;;;;;;;5.35;4.82;;;18.40;99.90;;;;;;5051721;28;20029;-59
2023/07/22 06:52:13;;;;;;;8.82;4.78;;;18.50;99.90;;;;;;5052141;28;20109;-60
2023/07/22 06:54:38;;;;;;;6.13;4.63;;;18.50;99.90;;;;;;5052458;28;20108;-59
2023/07/22 06:57:06;;;;;;;6.65;4.55;;;18.50;99.90;;;;;;5052104;28;20021;-59
2023/07/22 06:59:31;;;;;;;6.85;4.63;;;18.60;99.90;;;;;;5052002;28;20436;-60
2023/07/22 07:01:57;;;;;;;8.38;4.93;;;18.60;99.90;;;;;;5052078;28;20033;-60
2023/07/22 07:04:23;;;;;;;7.63;4.55;;;18.50;99.90;;;;;;5052043;28;20494;-59
2023/07/22 07:06:50;;;;;;;6.00;4.45;;;18.50;99.90;;;;;;5051407;28;20020;-60
2023/07/22 07:09:15;;;;;;;7.35;4.63;;;18.60;99.90;;;;;;5052208;28;20025;-60
2023/07/22 07:11:41;;;;;;;7.10;4.70;;;18.70;99.90;;;;;;5052097;28;20024;-60
2023/07/22 07:14:07;;;;;;;6.63;4.45;;;18.70;99.90;;;;;;5051607;28;20029;-60
2023/07/22 07:16:33;;;;;;;6.80;4.72;;;18.80;99.90;;;;;;5051782;28;20033;-59
2023/07/22 07:19:00;;;;;;;6.78;5.05;;;18.90;99.90;;;;;;5051290;28;20057;-59
2023/07/22 07:21:26;;;;;;;6.30;4.70;;;18.90;99.90;;;;;;5050838;28;20040;-59
2023/07/22 07:23:53;;;;;;;4.95;4.43;;;18.90;99.90;;;;;;5051624;28;20044;-59
2023/07/22 07:26:19;;;;;;;6.72;4.55;;;19.10;99.90;;;;;;5051671;28;20037;-59
2023/07/22 07:28:48;;;;;;;8.13;4.78;;;19.20;99.90;;;;;;5051664;28;20059;-59
2023/07/22 07:31:14;;;;;;;5.82;4.63;;;19.40;99.90;;;;;;5051151;28;20077;-59
2023/07/22 07:33:39;;;;;;;6.75;4.28;;;19.50;99.90;;;;;;5051737;28;20040;-59
2023/07/22 07:36:05;;;;;;;6.45;4.50;;;19.50;99.90;;;;;;5051535;28;20490;-59
2023/07/22 07:38:31;;;;;;;6.72;4.68;;;19.70;99.90;;;;;;5051616;28;20029;-59
2023/07/22 07:41:05;;;;;;;4.97;4.45;;;19.80;99.90;;;;;;5051288;28;20448;-59
2023/07/22 07:43:31;;;;;;;6.40;4.78;;;19.80;99.90;;;;;;5051208;28;20028;-59
2023/07/22 07:46:35;;;;;;;7.68;4.82;;;19.90;99.90;;;;;;5051568;28;20029;-59
2023/07/22 07:49:02;;;;;;;9.80;4.90;;;20.00;99.90;;;;;;5029046;28;20052;-59
2023/07/22 07:51:29;;;;;;;6.60;4.43;;;20.10;99.90;;;;;;5029461;28;20033;-59
2023/07/22 07:53:56;;;;;;;7.22;4.72;;;20.10;99.90;;;;;;5028898;28;20562;-60
2023/07/22 07:56:22;;;;;;;8.40;4.97;;;20.10;99.90;;;;;;5028953;28;20025;-60
2023/07/22 07:58:49;;;;;;;5.53;4.35;;;20.00;99.90;;;;;;5028629;28;20548;-60
2023/07/22 08:01:15;;;;;;;5.07;4.38;;;19.90;99.90;;;;;;5028597;28;20041;-60
2023/07/22 08:03:41;;;;;;;5.18;4.32;;;19.90;99.90;;;;;;5028481;28;20021;-60
2023/07/22 08:06:08;;;;;;;4.72;4.00;;;19.90;99.90;;;;;;5028882;28;20057;-60
2023/07/22 08:08:34;;;;;;;5.63;4.43;;;19.90;99.90;;;;;;5028638;28;20069;-60
2023/07/22 08:11:12;;;;;;;6.47;4.63;;;19.90;99.90;;;;;;5029395;28;20418;-60
2023/07/22 08:13:39;;;;;;;6.93;4.65;;;19.90;99.90;;;;;;5028649;28;20596;-60
2023/07/22 08:16:06;;;;;;;5.95;4.30;;;19.90;99.90;;;;;;5028499;28;20034;-60
2023/07/22 08:18:32;;;;;;;5.90;4.57;;;19.90;99.90;;;;;;5028684;28;20053;-60
2023/07/22 08:20:58;;;;;;;6.50;4.63;;;19.90;99.90;;;;;;5031093;28;20036;-59
2023/07/22 08:23:24;;;;;;;5.53;4.50;;;19.90;99.90;;;;;;5030881;28;20030;-60
2023/07/22 08:25:50;;;;;;;5.75;4.95;;;20.00;99.90;;;;;;5031462;28;20029;-60
2023/07/22 08:28:16;;;;;;;7.00;4.60;;;20.00;99.90;;;;;;5030819;28;20072;-59
2023/07/22 08:30:42;;;;;;;6.82;4.70;;;20.00;99.90;;;;;;5030614;28;20101;-60
2023/07/22 08:33:09;;;;;;;7.20;4.75;;;20.00;99.90;;;;;;5030794;28;20076;-60
2023/07/22 08:35:36;;;;;;;6.93;4.63;;;20.00;99.90;;;;;;5031491;28;20538;-60
2023/07/22 08:38:03;;;;;;;7.30;4.78;;;20.00;99.90;;;;;;5030814;28;20032;-59
2023/07/22 08:40:39;;;;;;;7.47;4.88;;;20.00;99.90;;;;;;5030960;28;20025;-60
2023/07/22 08:43:07;;;;;;;8.18;4.65;;;20.40;99.90;;;;;;5030795;28;20064;-60
2023/07/22 08:45:36;;;;;;;8.52;5.20;;;20.70;99.90;;;;;;5030483;28;20022;-59
2023/07/22 08:48:09;;;;;;;6.25;4.60;;;20.90;99.90;;;;;;5030777;28;20044;-59
2023/07/22 08:50:44;;;;;;;5.40;4.22;;;20.90;99.90;;;;;;5030796;28;20025;-60
2023/07/22 08:53:11;;;;;;;7.03;4.32;;;21.10;99.90;;;;;;5031166;28;20022;-60
2023/07/22 08:55:40;;;;;;;5.18;4.30;;;21.20;99.90;;;;;;5030625;28;20022;-60
2023/07/22 08:58:09;;;;;;;6.32;4.47;;;21.40;99.90;;;;;;5030671;28;20057;-60
2023/07/22 09:00:36;;;;;;;7.70;4.57;;;21.40;99.90;;;;;;5030361;28;20160;-60
2023/07/22 09:03:02;;;;;;;5.90;4.35;;;21.50;99.90;;;;;;5031043;28;20108;-59
2023/07/22 09:05:28;;;;;;;5.75;4.30;;;21.50;99.90;;;;;;5030580;28;20044;-58
2023/07/22 09:07:56;;;;;;;5.30;4.07;;;21.50;99.90;;;;;;5030444;28;20037;-60
2023/07/22 09:10:24;;;;;;;6.22;4.13;;;21.60;99.90;;;;;;5030619;28;20032;-60
2023/07/22 09:12:51;;;;;;;5.20;4.00;;;21.70;99.90;;;;;;5032385;28;20044;-60
2023/07/22 09:15:17;;;;;;;6.60;4.10;;;21.60;99.90;;;;;;5054459;28;20375;-60
2023/07/22 09:17:45;;;;;;;4.88;3.65;;;21.40;99.90;;;;;;5053912;28;20022;-59
2023/07/22 09:20:15;;;;;;;5.25;3.75;;;21.40;99.90;;;;;;5053955;28;20429;-60
2023/07/22 09:22:46;;;;;;;4.25;3.70;;;21.30;99.90;;;;;;5053928;28;20114;-60
2023/07/22 09:25:17;;;;;;;4.00;3.60;;;21.40;99.90;;;;;;5053602;28;20067;-60
2023/07/22 09:27:43;;;;;;;4.15;3.63;;;21.30;99.90;;;;;;5053493;28;20037;-60
2023/07/22 09:30:34;;;;;;;5.72;3.30;;;21.40;99.90;;;;;;5053846;28;20021;-59
2023/07/22 09:33:02;;;;;;;3.90;3.50;;;21.50;99.90;;;;;;5053731;28;20112;-59
2023/07/22 09:35:43;;;;;;;3.72;3.20;;;21.50;99.90;;;;;;5054062;28;20029;-59
2023/07/22 09:38:08;;;;;;;5.60;3.40;;;21.40;99.90;;;;;;5053486;28;20441;-59
2023/07/22 09:40:34;;;;;;;5.22;3.03;;;21.50;99.90;;;;;;5053520;28;20021;-60
2023/07/22 09:43:03;;;;;;;5.25;3.63;;;21.40;99.90;;;;;;5053192;28;20040;-58
2023/07/22 09:45:30;;;;;;;6.00;3.00;;;21.40;99.90;;;;;;5053408;28;20025;-60
2023/07/22 09:47:57;;;;;;;4.40;2.97;;;21.50;99.90;;;;;;5053376;28;20041;-60
2023/07/22 09:50:25;;;;;;;5.63;3.13;;;21.50;99.90;;;;;;5053775;28;20429;-59
2023/07/22 09:52:55;;;;;;;3.40;3.05;;;21.50;99.90;;;;;;5053529;28;20029;-60
2023/07/22 09:55:23;;;;;;;4.30;2.97;;;21.60;99.90;;;;;;5053154;28;20540;-60
2023/07/22 09:58:03;;;;;;;5.05;3.10;;;21.60;99.90;;;;;;5052849;28;20441;-60
2023/07/22 10:00:31;;;;;;;3.78;3.10;;;22.00;99.90;;;;;;5053615;28;20086;-60
2023/07/22 10:02:58;;;;;;;3.63;2.92;;;22.20;99.90;;;;;;5053090;28;20031;-60
2023/07/22 10:05:25;;;;;;;4.18;2.80;;;22.40;99.90;;;;;;5053220;28;20123;-60
2023/07/22 10:07:56;;;;;;;3.28;2.83;;;22.60;99.90;;;;;;5053034;28;20029;-60
2023/07/22 10:10:26;;;;;;;4.35;3.10;;;22.60;99.90;;;;;;5053398;28;20048;-60
2023/07/22 10:12:53;;;;;;;5.10;3.00;;;22.80;99.90;;;;;;5052405;28;20021;-60
2023/07/22 10:15:19;;;;;;;5.22;3.40;;;22.90;99.90;;;;;;5052903;28;20082;-60
2023/07/22 10:17:46;;;;;;;4.53;3.80;;;22.80;99.90;;;;;;5053321;28;20025;-59
2023/07/22 10:20:16;;;;;;;4.80;3.80;;;22.90;99.90;;;;;;5052781;28;20469;-60
2023/07/22 10:22:44;;;;;;;4.30;3.70;;;23.00;99.90;;;;;;5052722;28;20045;-60
2023/07/22 10:25:20;;;;;;;3.78;3.42;;;23.00;99.90;;;;;;5051900;28;20056;-59
2023/07/22 10:27:47;;;;;;;4.65;3.55;;;23.00;99.90;;;;;;5052677;28;20093;-60
2023/07/22 10:30:15;;;;;;;4.57;3.80;;;23.00;99.90;;;;;;5052683;28;20028;-60
2023/07/22 10:32:46;;;;;;;6.45;3.78;;;22.90;99.90;;;;;;5052617;28;20033;-60
2023/07/22 10:35:29;;;;;;;5.80;4.03;;;22.70;99.90;;;;;;5052613;28;20029;-60
2023/07/22 10:37:55;;;;;;;5.93;3.75;;;22.70;99.90;;;;;;5052464;28;20537;-60
2023/07/22 10:40:29;;;;;;;5.97;3.65;;;22.70;99.90;;;;;;5052322;28;20048;-60
2023/07/22 10:43:04;;;;;;;5.38;3.60;;;22.60;99.90;;;;;;5052476;28;20065;-60
2023/07/22 10:45:33;;;;;;;6.78;4.03;;;22.60;99.90;;;;;;5052630;28;20037;-60
2023/07/22 10:48:10;;;;;;;4.50;4.00;;;22.60;99.90;;;;;;5052237;28;20029;-60
2023/07/22 10:50:47;;;;;;;5.15;3.85;;;22.60;99.90;;;;;;5052276;28;20460;-59
2023/07/22 10:53:13;;;;;;;5.05;3.95;;;22.70;99.90;;;;;;5052199;28;20021;-60
2023/07/22 10:56:14;;;;;;;5.07;4.20;;;22.70;99.90;;;;;;5052278;28;20025;-60
2023/07/22 10:58:46;;;;;;;4.95;3.83;;;22.90;99.90;;;;;;5052329;28;20032;-60
2023/07/22 11:01:24;;;;;;;5.03;3.83;;;23.00;99.90;;;;;;5052139;28;20059;-60
2023/07/22 11:04:08;;;;;;;4.65;3.90;;;23.00;99.90;;;;;;5052105;28;20029;-60
2023/07/22 11:06:35;;;;;;;5.53;3.60;;;23.00;99.90;;;;;;5051876;28;20485;-60
2023/07/22 11:09:01;;;;;;;4.65;3.83;;;22.90;99.90;;;;;;5051534;28;20045;-60
2023/07/22 11:11:45;;;;;;;4.07;3.40;;;22.60;99.90;;;;;;5052230;28;20096;-60
2023/07/22 11:14:18;;;;;;;4.40;3.65;;;22.70;99.90;;;;;;5051710;28;20040;-60
2023/07/22 11:16:46;;;;;;;4.78;3.00;;;23.00;99.90;;;;;;5051756;28;20456;-59
2023/07/22 11:19:14;;;;;;;3.65;2.75;;;23.30;99.90;;;;;;5052105;28;20036;-59
2023/07/22 11:21:39;;;;;;;3.50;2.75;;;23.60;99.90;;;;;;5051660;28;20448;-59
2023/07/22 11:24:07;;;;;;;2.80;2.60;;;23.80;99.90;;;;;;5051298;28;20053;-60
2023/07/22 11:26:33;;;;;;;3.33;2.53;;;23.70;99.90;;;;;;5051948;28;20035;-60
2023/07/22 11:29:00;;;;;;;3.47;2.70;;;24.00;99.90;;;;;;5051922;28;20048;-59
2023/07/22 11:31:34;;;;;;;4.10;2.80;;;23.90;99.90;;;;;;5051733;28;20028;-60
2023/07/22 11:34:00;;;;;;;5.57;2.97;;;24.10;99.90;;;;;;5051530;28;20029;-60
2023/07/22 11:36:29;;;;;;;2.88;2.58;;;24.20;99.90;;;;;;5051283;28;20060;-60
2023/07/22 11:39:01;;;;;;;4.03;2.60;;;24.40;99.90;;;;;;5051361;28;20071;-60
2023/07/22 11:41:27;;;;;;;2.95;2.17;;;24.50;99.90;;;;;;5051427;28;20033;-60
2023/07/22 11:43:53;;;;;;;3.25;2.45;;;24.40;99.90;;;;;;5051780;28;20033;-60
2023/07/22 11:46:19;;;;;;;2.85;2.47;;;24.50;99.90;;;;;;5051285;28;20109;-60
2023/07/22 11:48:52;;;;;;;3.65;2.30;;;24.60;99.90;;;;;;5051321;28;20044;-60
2023/07/22 11:51:19;;;;;;;;;;;24.50;99.90;;;;;;5051690;28;20032;-60
2023/07/22 11:53:50;;;;;;;3.70;2.20;;;24.60;99.90;;;;;;5050987;28;19915;-60
2023/07/22 11:56:26;;;;;;;3.40;2.25;;;24.40;99.90;;;;;;5051131;28;20441;-60
2023/07/22 11:58:56;;;;;;;2.70;2.50;;;24.20;99.90;;;;;;5051642;28;20021;-60
2023/07/22 12:01:23;;;;;;;2.60;1.90;;;24.20;99.90;;;;;;5051144;28;20021;-59
2023/07/22 12:03:54;;;;;;;4.20;2.10;;;24.00;99.90;;;;;;5051194;28;20040;-61
2023/07/22 12:06:24;;;;;;;6.60;2.30;;;24.10;99.90;;;;;;5050978;28;20032;-61
2023/07/22 12:08:52;;;;;;;7.10;2.28;;;24.20;99.90;;;;;;5050578;28;20040;-60
2023/07/22 12:11:19;;;;;;;3.13;2.10;;;24.40;99.90;;;;;;5051480;28;20032;-61
2023/07/22 12:13:46;;;;;;;2.78;1.98;;;24.20;99.90;;;;;;5051012;28;20040;-60
2023/07/22 12:16:12;;;;;;;4.78;2.20;;;24.10;99.90;;;;;;5050986;28;20274;-60
2023/07/22 12:18:45;;;;;;;3.33;2.20;;;24.40;99.90;;;;;;5050760;28;20057;-61
2023/07/22 12:21:11;;;;;;;2.58;2.35;;;24.50;99.90;;;;;;5051061;28;20108;-60
2023/07/22 12:23:38;;;;;;;2.55;2.13;;;24.40;99.90;;;;;;5051203;28;20044;-60
2023/07/22 12:26:06;;;;;;;3.38;2.30;;;24.50;99.90;;;;;;5050894;28;20025;-60
2023/07/22 12:28:32;;;;;;;3.10;2.40;;;24.50;99.90;;;;;;5051003;28;20120;-60
2023/07/22 12:30:58;;;;;;;4.07;2.45;;;24.60;99.90;;;;;;5050901;28;20109;-60
2023/07/22 12:33:24;;;;;;;2.72;2.53;;;24.60;99.90;;;;;;5050785;28;20104;-60
2023/07/22 12:35:51;;;;;;;2.33;2.13;;;24.60;99.90;;;;;;5050942;28;20075;-60
2023/07/22 12:38:17;;;;;;;2.72;2.30;;;24.60;99.90;;;;;;5050712;28;20398;-60
2023/07/22 12:40:42;;;;;;;3.25;2.42;;;24.80;99.90;;;;;;5050965;28;20029;-60
2023/07/22 12:43:08;;;;;;;3.25;2.20;;;24.80;99.90;;;;;;5050850;28;20516;-60
2023/07/22 12:45:34;;;;;;;3.25;2.42;;;24.70;99.90;;;;;;5050750;28;20025;-60
2023/07/22 12:47:59;;;;;;;3.05;2.28;;;24.70;99.90;;;;;;5050749;28;20509;-60
2023/07/22 12:50:25;;;;;;;2.60;2.30;;;25.00;99.90;;;;;;5054688;28;20528;-60